Messwerte Lilongwe International Airport

Temperatur

Temperatur
°C
1582477200 19.00 19.00
1582480800 20.00 20.00
1582484400 21.00 21.00
1582488000 22.00 22.00
1582491600 23.00 23.00
1582495200 0.00 0.00
1582498800 1.00 1.00 21
1582502400 2.00 2.00 20
1582506000 3.00 3.00
1582509600 4.00 4.00
1582513200 5.00 5.00
1582516800 6.00 6.00 19
1582520400 7.00 7.00 21
1582524000 8.00 8.00 22
1582527600 9.00 9.00 25
1582531200 10.00 10.00 26
1582534800 11.00 11.00
1582538400 12.00 12.00 27
1582542000 13.00 13.00 29
1582545600 14.00 14.00 26
1582549200 15.00 15.00
1582552800 16.00 16.00 24
1582556400 17.00 17.00 20
1582560000 18.00 18.00 20

Aktuellste Messwerte

Wettercharakter
Wetter: gewitterhaft
Temperatur
20 °C
Feuchtigkeit
94 %
Wind
5 km/h, -
Luftdruck
1017 hPa
Messzeit: 24. Februar 2020, 18.00Datenquelle: METAR

Weitere Messstationen in der Nähe

Messstation Temperatur Entfernung
Tete 24 °C 264 km
Songea - 396 km

Wind

Windrichtung Böen Mittelwind
° km/h km/h
1582477200 19.00 18.00 - 19.00
1582480800 20.00 19.00 - 20.00
1582484400 21.00 20.00 - 21.00
1582488000 22.00 21.00 - 22.00
1582491600 23.00 22.00 - 23.00
1582495200 0.00 23.00 - 0.00
1582498800 1.00 0.00 - 1.00 240° 5
1582502400 2.00 1.00 - 2.00 220° 5
1582506000 3.00 2.00 - 3.00
1582509600 4.00 3.00 - 4.00
1582513200 5.00 4.00 - 5.00
1582516800 6.00 5.00 - 6.00 0
1582520400 7.00 6.00 - 7.00 0
1582524000 8.00 7.00 - 8.00 0
1582527600 9.00 8.00 - 9.00 150° 20
1582531200 10.00 9.00 - 10.00 100° 10
1582534800 11.00 10.00 - 11.00
1582538400 12.00 11.00 - 12.00 210° 5
1582542000 13.00 12.00 - 13.00 210° 15
1582545600 14.00 13.00 - 14.00 130° 25
1582549200 15.00 14.00 - 15.00
1582552800 16.00 15.00 - 16.00 240° 45 20
1582556400 17.00 16.00 - 17.00 230° 35 20
1582560000 18.00 17.00 - 18.00 5

Ihre Wetterstation

Fehlt Ihre Wetterstation auf unserem Portal?

Schreiben Sie an network@meteonews.ch